SWA1757 KOMA-KDEN
Flight info
| Callsign | SWA1757 |
|---|---|
| Flight time | N/A |
| Altitude | 40000 |
| Route | OBH BRWRY LAWGR4 |
| Aircraft | B737/M-SADE2E3GIJ4RWZ/LB1D1 |
Departure
| Time | 2026-05-08 00:49 |
|---|---|
| Airport | Eppley Airfield (KOMA) |
Arrival
| Time | N/A |
|---|---|
| Airport | Denver International Airport (KDEN) |
| Time | Latitude | Longitude | Altitude | Speed | Heading |
|---|---|---|---|---|---|
| 2026-05-08 00:29 | 41.30099 | -95.89780 | 984 ft | 0 kts | 274° |
| 2026-05-08 00:39 | 41.30099 | -95.89775 | 984 ft | 3 kts | 274° |
| 2026-05-08 00:39 | 41.30097 | -95.89739 | 989 ft | 4 kts | 274° |
| 2026-05-08 00:39 | 41.30095 | -95.89710 | 983 ft | 4 kts | 269° |
| 2026-05-08 00:39 | 41.30102 | -95.89689 | 983 ft | 4 kts | 189° |
| 2026-05-08 00:40 | 41.30126 | -95.89688 | 989 ft | 3 kts | 180° |
| 2026-05-08 00:40 | 41.30129 | -95.89688 | 987 ft | 1 kts | 180° |
| 2026-05-08 00:41 | 41.30128 | -95.89688 | 983 ft | 1 kts | 180° |
| 2026-05-08 00:41 | 41.30076 | -95.89688 | 983 ft | 14 kts | 180° |
| 2026-05-08 00:42 | 41.29940 | -95.89689 | 987 ft | 25 kts | 180° |
| 2026-05-08 00:42 | 41.29747 | -95.89689 | 985 ft | 29 kts | 180° |
| 2026-05-08 00:42 | 41.29561 | -95.89651 | 988 ft | 21 kts | 100° |
| 2026-05-08 00:42 | 41.29635 | -95.89531 | 984 ft | 19 kts | 86° |
| 2026-05-08 00:43 | 41.29646 | -95.89316 | 984 ft | 28 kts | 62° |
| 2026-05-08 00:43 | 41.29640 | -95.89132 | 988 ft | 26 kts | 144° |
| 2026-05-08 00:43 | 41.29473 | -95.88973 | 989 ft | 33 kts | 144° |
| 2026-05-08 00:43 | 41.29290 | -95.88797 | 987 ft | 32 kts | 144° |
| 2026-05-08 00:44 | 41.29229 | -95.88697 | 986 ft | 0 kts | 73° |
| 2026-05-08 00:48 | 41.29230 | -95.88694 | 984 ft | 1 kts | 73° |
| 2026-05-08 00:48 | 41.29249 | -95.88658 | 989 ft | 10 kts | 44° |
| 2026-05-08 00:48 | 41.29344 | -95.88675 | 987 ft | 22 kts | 328° |
| 2026-05-08 00:49 | 41.29669 | -95.88982 | 991 ft | 93 kts | 324° |
| 2026-05-08 00:49 | 41.30374 | -95.89650 | 997 ft | 151 kts | 323° |
| 2026-05-08 00:49 | 41.31263 | -95.90521 | 1472 ft | 158 kts | 331° |
| 2026-05-08 00:49 | 41.32179 | -95.91337 | 2267 ft | 155 kts | 320° |
| 2026-05-08 00:50 | 41.33003 | -95.92288 | 2884 ft | 166 kts | 322° |
| 2026-05-08 00:50 | 41.33994 | -95.93339 | 3210 ft | 192 kts | 315° |
| 2026-05-08 00:50 | 41.34598 | -95.94852 | 3947 ft | 193 kts | 274° |
| 2026-05-08 00:50 | 41.34517 | -95.96645 | 4743 ft | 197 kts | 267° |
| 2026-05-08 00:51 | 41.34515 | -95.98526 | 5449 ft | 209 kts | 273° |
| 2026-05-08 00:51 | 41.34596 | -96.00442 | 6391 ft | 204 kts | 273° |
| 2026-05-08 00:51 | 41.34646 | -96.02281 | 7437 ft | 195 kts | 272° |
| 2026-05-08 00:51 | 41.34668 | -96.04112 | 8147 ft | 205 kts | 269° |
| 2026-05-08 00:52 | 41.34455 | -96.06156 | 8450 ft | 249 kts | 253° |
| 2026-05-08 00:52 | 41.33537 | -96.08410 | 8570 ft | 309 kts | 230° |
| 2026-05-08 00:52 | 41.31621 | -96.10049 | 9148 ft | 350 kts | 195° |
| 2026-05-08 00:52 | 41.29200 | -96.09758 | 10629 ft | 357 kts | 155° |
| 2026-05-08 00:53 | 41.27458 | -96.07485 | 12305 ft | 360 kts | 115° |
| 2026-05-08 00:53 | 41.27065 | -96.04241 | 13258 ft | 371 kts | 77° |
| 2026-05-08 00:53 | 41.28184 | -96.01122 | 13862 ft | 380 kts | 41° |
| 2026-05-08 00:53 | 41.30402 | -95.99398 | 15046 ft | 361 kts | 6° |
| 2026-05-08 00:54 | 41.32751 | -95.99589 | 16838 ft | 325 kts | 333° |
| 2026-05-08 00:54 | 41.34449 | -96.01341 | 18444 ft | 307 kts | 302° |
| 2026-05-08 00:54 | 41.35103 | -96.04016 | 19271 ft | 322 kts | 274° |